Time;durP1;ratioP1;P1;durP2;ratioP2;P2;SDS_P1;SDS_P2;PMS_P1;PMS_P2;Temp;Humidity;BMP_temperature;BMP_pressure;BME280_temperature;BME280_humidity;BME280_pressure;Samples;Min_cycle;Max_cycle;Signal;HPM_P1;HPM_P2
2022/05/10 00:00:10;;;;;;;2.97;1.33;;;;;;;11.66;100.00;101547.22;5073939;28;20040;-78
2022/05/10 00:02:49;;;;;;;3.47;1.23;;;;;;;11.55;100.00;101538.16;5072678;28;20056;-79
2022/05/10 00:05:28;;;;;;;3.60;1.20;;;;;;;11.51;100.00;101533.50;5069860;28;20033;-79
2022/05/10 00:08:06;;;;;;;4.45;1.48;;;;;;;11.51;100.00;101536.25;5044678;28;20048;-79
2022/05/10 00:10:34;;;;;;;2.88;1.38;;;;;;;11.45;100.00;101529.94;5046767;28;20048;-78
2022/05/10 00:13:08;;;;;;;2.50;1.13;;;;;;;11.49;100.00;101530.22;5054478;28;20055;-79
2022/05/10 00:15:42;;;;;;;2.60;1.27;;;;;;;11.39;100.00;101529.09;5067221;28;20040;-79
2022/05/10 00:18:15;;;;;;;3.70;1.55;;;;;;;11.40;100.00;101536.16;5069742;28;20063;-78
2022/05/10 00:20:49;;;;;;;2.33;1.30;;;;;;;11.43;100.00;101523.13;5066038;28;20362;-79
2022/05/10 00:23:23;;;;;;;2.72;1.40;;;;;;;11.29;100.00;101523.56;5049770;28;20049;-79
2022/05/10 00:25:51;;;;;;;2.55;1.30;;;;;;;11.36;100.00;101513.25;5076625;28;20461;-78
2022/05/10 00:28:20;;;;;;;4.25;1.63;;;;;;;11.35;100.00;101511.63;5068637;28;20048;-79
2022/05/10 00:30:53;;;;;;;1.77;1.10;;;;;;;11.33;100.00;101513.78;5074630;28;20036;-78
2022/05/10 00:33:29;;;;;;;4.85;1.25;;;;;;;11.29;100.00;101506.41;5067133;28;20045;-79
2022/05/10 00:35:58;;;;;;;3.63;1.50;;;;;;;11.26;100.00;101505.03;5052332;28;20044;-79
2022/05/10 00:38:35;;;;;;;3.15;1.20;;;;;;;11.32;100.00;101514.06;5042464;28;20044;-78
2022/05/10 00:41:13;;;;;;;2.13;1.33;;;;;;;11.27;100.00;101500.41;5080494;28;20049;-78
2022/05/10 00:43:50;;;;;;;1.95;1.10;;;;;;;11.23;100.00;101494.69;5059061;28;20041;-79
2022/05/10 00:46:27;;;;;;;2.53;1.20;;;;;;;11.32;100.00;101498.53;5049598;28;20055;-79
2022/05/10 00:49:06;;;;;;;;;;;;;;;11.32;100.00;101490.34;5076100;28;20032;-78
2022/05/10 00:51:45;;;;;;;3.53;1.23;;;;;;;11.26;100.00;101496.06;5046341;28;19921;-79
2022/05/10 00:54:29;;;;;;;1.73;1.10;;;;;;;11.19;100.00;101496.28;5054994;28;20067;-79
2022/05/10 00:57:13;;;;;;;3.90;1.33;;;;;;;11.17;100.00;101488.38;5064961;28;20044;-79
2022/05/10 00:59:55;;;;;;;2.90;1.30;;;;;;;11.18;100.00;101490.00;5072849;28;20409;-79
2022/05/10 01:02:43;;;;;;;3.50;1.40;;;;;;;11.16;100.00;101492.19;5051943;28;20401;-78
2022/05/10 01:05:23;;;;;;;3.25;1.35;;;;;;;11.16;100.00;101486.72;5069587;28;20044;-78
2022/05/10 01:08:07;;;;;;;2.17;1.20;;;;;;;11.06;100.00;101482.06;5049103;28;20048;-78
2022/05/10 01:10:46;;;;;;;2.65;1.20;;;;;;;11.05;100.00;101474.94;5070290;28;20491;-78
2022/05/10 01:13:20;;;;;;;1.95;1.10;;;;;;;10.98;100.00;101478.97;5069380;28;20465;-78
2022/05/10 01:15:59;;;;;;;4.43;1.50;;;;;;;11.00;100.00;101471.38;5070247;28;20041;-79
2022/05/10 01:18:32;;;;;;;3.25;1.40;;;;;;;11.02;100.00;101469.19;5044125;28;20067;-79
2022/05/10 01:21:21;;;;;;;3.08;1.40;;;;;;;10.93;100.00;101473.53;5069694;28;20047;-79
2022/05/10 01:24:10;;;;;;;2.30;1.20;;;;;;;10.99;100.00;101472.47;5042970;28;20057;-79
2022/05/10 01:26:59;;;;;;;2.67;1.23;;;;;;;10.96;100.00;101462.09;5074080;28;20036;-78
2022/05/10 01:29:39;;;;;;;3.60;1.40;;;;;;;10.78;100.00;101466.06;5072572;28;20374;-78
2022/05/10 01:35:15;;;;;;;3.58;1.60;;;;;;;10.86;100.00;101450.06;5045611;28;20040;-78
2022/05/10 01:37:55;;;;;;;3.65;1.40;;;;;;;10.79;100.00;101448.66;5054601;28;20048;-78
2022/05/10 01:40:32;;;;;;;4.30;1.55;;;;;;;10.78;100.00;101447.00;5064690;28;20405;-78
2022/05/10 01:43:11;;;;;;;4.20;1.40;;;;;;;10.71;100.00;101447.22;5050197;28;20052;-78
2022/05/10 01:45:49;;;;;;;2.65;1.13;;;;;;;10.72;100.00;101429.81;5047331;28;20057;-78
2022/05/10 01:48:23;;;;;;;2.30;1.20;;;;;;;10.78;100.00;101427.94;5063712;28;20048;-78
2022/05/10 01:51:02;;;;;;;2.53;1.40;;;;;;;10.66;100.00;101437.16;5074006;28;20055;-78
2022/05/10 01:53:38;;;;;;;3.67;1.20;;;;;;;10.65;100.00;101430.03;5070053;28;20052;-78
2022/05/10 01:56:14;;;;;;;4.35;1.58;;;;;;;10.53;100.00;101419.34;5054214;28;20056;-78
2022/05/10 01:58:48;;;;;;;2.47;1.30;;;;;;;10.55;100.00;101411.75;5046094;28;20496;-78
2022/05/10 02:01:30;;;;;;;2.92;1.10;;;;;;;10.47;100.00;101414.16;5056676;28;20040;-79
2022/05/10 02:04:09;;;;;;;4.35;1.40;;;;;;;10.35;100.00;101419.75;5056283;28;20048;-79
2022/05/10 02:06:47;;;;;;;4.07;1.60;;;;;;;10.35;100.00;101409.69;5048738;28;20388;-79
2022/05/10 02:09:22;;;;;;;2.47;1.25;;;;;;;10.40;100.00;101405.38;5068095;28;20032;-79
2022/05/10 02:12:01;;;;;;;1.63;1.10;;;;;;;10.35;100.00;101409.69;5047767;28;20052;-79
2022/05/10 02:14:33;;;;;;;3.28;1.58;;;;;;;10.45;100.00;101408.94;5049290;28;20053;-79
2022/05/10 02:17:12;;;;;;;2.75;1.27;;;;;;;10.50;100.00;101408.97;5045464;28;20417;-79
2022/05/10 02:19:51;;;;;;;4.43;1.42;;;;;;;10.48;100.00;101399.44;5042475;28;20044;-79
2022/05/10 02:22:31;;;;;;;4.60;1.38;;;;;;;10.52;100.00;101400.56;5066955;28;20040;-79
2022/05/10 02:25:04;;;;;;;2.72;1.30;;;;;;;10.60;100.00;101393.81;5055554;28;20044;-79
2022/05/10 02:27:42;;;;;;;4.40;1.38;;;;;;;10.53;100.00;101378.50;5061037;28;20048;-79
2022/05/10 02:30:19;;;;;;;3.05;1.30;;;;;;;10.49;100.00;101393.72;5052589;28;20076;-79
2022/05/10 02:33:09;;;;;;;2.88;1.38;;;;;;;10.60;100.00;101383.72;5069419;28;20032;-79
2022/05/10 02:35:47;;;;;;;4.10;1.58;;;;;;;10.50;100.00;101380.97;5087199;28;20436;-79
2022/05/10 02:38:24;;;;;;;2.42;1.48;;;;;;;10.54;100.00;101368.47;5044536;28;20049;-78
2022/05/10 02:40:59;;;;;;;4.28;1.40;;;;;;;10.48;100.00;101367.63;5066052;28;20052;-79
2022/05/10 02:43:35;;;;;;;3.75;1.45;;;;;;;10.52;100.00;101366.00;5074188;28;20037;-78
2022/05/10 02:46:10;;;;;;;4.25;1.30;;;;;;;10.61;100.00;101358.16;5053686;28;20052;-79
2022/05/10 02:48:47;;;;;;;4.50;1.50;;;;;;;10.54;100.00;101361.13;5067534;28;20048;-78
2022/05/10 02:51:21;;;;;;;2.35;1.23;;;;;;;10.55;100.00;101357.31;5046655;28;20484;-79
2022/05/10 02:53:54;;;;;;;2.33;1.40;;;;;;;10.48;100.00;101347.72;5072610;28;20048;-78
2022/05/10 02:56:25;;;;;;;3.75;1.20;;;;;;;10.47;100.00;101351.56;5046761;28;20056;-79
2022/05/10 02:58:56;;;;;;;3.92;1.30;;;;;;;10.49;100.00;101355.63;5065792;28;20048;-79
2022/05/10 03:01:36;;;;;;;4.72;1.52;;;;;;;10.42;100.00;101348.78;5071453;28;20048;-78
2022/05/10 03:04:12;;;;;;;2.20;1.20;;;;;;;10.44;100.00;101350.19;5072648;28;20051;-78
2022/05/10 03:06:47;;;;;;;5.50;1.45;;;;;;;10.47;100.00;101354.28;5071060;28;20059;-78
2022/05/10 03:09:20;;;;;;;3.67;1.30;;;;;;;10.36;100.00;101345.22;5053242;28;20053;-78
2022/05/10 03:11:53;;;;;;;2.65;1.35;;;;;;;10.45;100.00;101348.25;5071360;28;20052;-79
2022/05/10 03:14:27;;;;;;;2.95;1.33;;;;;;;10.37;100.00;101344.97;5051518;28;20067;-78
2022/05/10 03:16:55;;;;;;;3.50;1.23;;;;;;;10.41;100.00;101337.06;5086444;28;20396;-79
2022/05/10 03:19:30;;;;;;;3.50;1.30;;;;;;;10.32;100.00;101338.63;5069941;28;20086;-79
2022/05/10 03:22:01;;;;;;;3.28;1.45;;;;;;;10.37;100.00;101328.63;5065390;28;20044;-78
2022/05/10 03:24:35;;;;;;;2.95;1.30;;;;;;;10.28;100.00;101332.06;5070401;28;20045;-79
2022/05/10 03:27:06;;;;;;;4.07;1.45;;;;;;;10.33;100.00;101330.22;5052384;28;20047;-79
2022/05/10 03:29:40;;;;;;;;;;;;;;;10.26;100.00;101329.63;5051964;28;20048;-78
2022/05/10 03:32:14;;;;;;;3.13;1.50;;;;;;;10.28;100.00;101327.44;5067058;28;19921;-78
2022/05/10 03:34:58;;;;;;;3.55;1.40;;;;;;;10.29;100.00;101328.25;5062758;28;20045;-78
2022/05/10 03:37:32;;;;;;;3.75;1.38;;;;;;;10.26;100.00;101324.19;5053072;28;20059;-79
2022/05/10 03:40:06;;;;;;;4.38;1.20;;;;;;;10.30;100.00;101319.03;5046817;28;20052;-79
2022/05/10 03:42:44;;;;;;;3.78;1.30;;;;;;;10.18;100.00;101320.03;5071235;28;20041;-80
2022/05/10 03:45:20;;;;;;;3.42;1.27;;;;;;;10.18;100.00;101314.59;5068291;28;20044;-78
2022/05/10 03:47:53;;;;;;;2.22;1.33;;;;;;;10.21;100.00;101314.06;5046840;28;20049;-79
2022/05/10 03:50:28;;;;;;;3.33;1.50;;;;;;;10.23;100.00;101313.00;5068484;28;20456;-78
2022/05/10 03:53:01;;;;;;;2.80;1.20;;;;;;;10.36;100.00;101309.84;5047610;28;20726;-78
2022/05/10 03:55:29;;;;;;;2.75;1.45;;;;;;;10.34;100.00;101303.81;5045740;28;20040;-79
2022/05/10 03:58:04;;;;;;;3.20;1.70;;;;;;;10.29;100.00;101307.31;5048475;28;20496;-78
2022/05/10 04:00:37;;;;;;;3.15;1.50;;;;;;;10.30;100.00;101305.41;5037378;28;20053;-79
2022/05/10 04:03:06;;;;;;;4.88;1.65;;;;;;;10.25;100.00;101308.94;5085693;28;20484;-79
2022/05/10 04:05:40;;;;;;;3.78;1.70;;;;;;;10.31;100.00;101299.72;5061917;28;20362;-79
2022/05/10 04:08:14;;;;;;;4.65;2.13;;;;;;;10.35;100.00;101297.31;5049388;28;20048;-79
2022/05/10 04:10:47;;;;;;;3.08;1.55;;;;;;;10.29;100.00;101296.44;5049218;28;20052;-79
2022/05/10 04:13:20;;;;;;;3.33;1.35;;;;;;;10.34;100.00;101304.69;5070072;28;20048;-79
2022/05/10 04:15:54;;;;;;;3.92;1.63;;;;;;;10.41;100.00;101311.78;5067738;28;20032;-80
2022/05/10 04:18:28;;;;;;;2.97;1.60;;;;;;;10.41;100.00;101298.97;5070164;28;20040;-79
2022/05/10 04:20:58;;;;;;;3.03;1.30;;;;;;;10.48;100.00;101299.59;5069808;28;20071;-78
2022/05/10 04:23:26;;;;;;;2.70;1.40;;;;;;;10.58;100.00;101296.09;5047770;28;20053;-79
2022/05/10 04:25:54;;;;;;;3.35;1.42;;;;;;;10.57;100.00;101294.44;5068032;28;20041;-78
2022/05/10 04:28:28;;;;;;;4.35;1.58;;;;;;;10.67;100.00;101289.03;5072145;28;20060;-79
2022/05/10 04:31:01;;;;;;;5.00;1.67;;;;;;;10.68;100.00;101287.97;5072445;28;20039;-80
2022/05/10 04:33:29;;;;;;;2.60;1.40;;;;;;;10.73;100.00;101287.19;5050736;28;20056;-79
2022/05/10 04:36:04;;;;;;;3.38;1.50;;;;;;;10.76;100.00;101292.09;5049280;28;20057;-79
2022/05/10 04:38:37;;;;;;;5.47;1.75;;;;;;;10.78;100.00;101283.66;5048936;28;20049;-79
2022/05/10 04:41:27;;;;;;;3.58;1.38;;;;;;;10.84;100.00;101283.41;5068140;28;20037;-79
2022/05/10 04:44:02;;;;;;;4.10;1.63;;;;;;;10.87;100.00;101274.72;5071974;28;20056;-79
2022/05/10 04:46:38;;;;;;;3.83;1.40;;;;;;;10.82;100.00;101277.41;5067361;28;20045;-79
2022/05/10 04:49:13;;;;;;;4.82;1.52;;;;;;;10.87;100.00;101284.78;5051765;28;20058;-79
2022/05/10 04:51:43;;;;;;;2.17;1.58;;;;;;;10.99;100.00;101279.94;5049144;28;20052;-79
2022/05/10 04:54:11;;;;;;;4.97;1.60;;;;;;;11.03;100.00;101275.59;5066552;28;20488;-80
2022/05/10 04:56:44;;;;;;;2.85;1.48;;;;;;;11.10;100.00;101271.78;5069582;28;20060;-79
2022/05/10 04:59:12;;;;;;;3.10;1.50;;;;;;;11.25;100.00;101274.53;5070393;28;20547;-78
2022/05/10 05:01:40;;;;;;;1.70;1.38;;;;;;;11.42;100.00;101273.47;5068921;28;20047;-78
2022/05/10 05:04:14;;;;;;;2.50;1.38;;;;;;;12.06;100.00;101269.41;5074293;28;20453;-79
2022/05/10 05:06:51;;;;;;;2.22;1.33;;;;;;;12.56;100.00;101266.81;5051595;28;20052;-79
2022/05/10 05:09:24;;;;;;;3.33;1.58;;;;;;;12.99;100.00;101266.34;5070037;28;20369;-79
2022/05/10 05:11:58;;;;;;;3.78;1.50;;;;;;;13.39;100.00;101262.53;5053674;28;20052;-79
2022/05/10 05:14:32;;;;;;;4.05;1.50;;;;;;;13.83;100.00;101265.50;5049864;28;20041;-79
2022/05/10 05:17:05;;;;;;;2.65;1.50;;;;;;;14.03;100.00;101262.56;5048489;28;20053;-79
2022/05/10 05:19:38;;;;;;;3.25;1.48;;;;;;;14.23;98.88;101255.25;5068084;28;20408;-79
2022/05/10 05:22:13;;;;;;;3.35;1.65;;;;;;;13.69;100.00;101270.81;5049719;28;20394;-79
2022/05/10 05:24:46;;;;;;;3.28;1.60;;;;;;;13.19;100.00;101268.16;5047090;28;20052;-80
2022/05/10 05:27:20;;;;;;;2.97;1.40;;;;;;;12.85;100.00;101271.59;5052447;28;20041;-78
2022/05/10 05:29:53;;;;;;;4.07;1.60;;;;;;;12.93;100.00;101271.00;5073042;28;20044;-79
2022/05/10 05:32:28;;;;;;;2.42;1.52;;;;;;;12.79;100.00;101270.81;5070944;28;20036;-79
2022/05/10 05:35:02;;;;;;;4.90;1.70;;;;;;;12.59;100.00;101266.25;5067612;28;20040;-79
2022/05/10 05:37:37;;;;;;;3.28;1.50;;;;;;;12.47;100.00;101266.56;5067042;28;20049;-79
2022/05/10 05:40:09;;;;;;;8.48;1.80;;;;;;;12.58;100.00;101262.69;5065091;28;20041;-79
2022/05/10 05:42:43;;;;;;;2.75;1.42;;;;;;;12.46;100.00;101255.94;5054424;28;20055;-80
2022/05/10 05:45:19;;;;;;;2.65;1.50;;;;;;;12.42;100.00;101263.84;5049635;28;20389;-79
2022/05/10 05:47:56;;;;;;;3.22;1.40;;;;;;;12.37;100.00;101259.25;5045989;28;20044;-79
2022/05/10 05:50:30;;;;;;;3.40;1.50;;;;;;;12.46;100.00;101264.13;5067919;28;20063;-79
2022/05/10 05:53:05;;;;;;;4.10;1.60;;;;;;;12.59;100.00;101274.44;5049789;28;20504;-79
2022/05/10 05:55:40;;;;;;;7.00;1.77;;;;;;;12.59;100.00;101260.78;5049416;28;20048;-79
2022/05/10 05:58:08;;;;;;;2.92;1.60;;;;;;;12.88;100.00;101262.84;5070613;28;20071;-79
2022/05/10 06:00:42;;;;;;;3.63;1.65;;;;;;;12.91;100.00;101259.53;5070124;28;20543;-79
2022/05/10 06:03:15;;;;;;;3.20;1.67;;;;;;;13.05;100.00;101259.72;5055143;28;20040;-79
2022/05/10 06:05:49;;;;;;;3.15;1.40;;;;;;;13.19;100.00;101246.28;5043054;28;20045;-80
2022/05/10 06:08:24;;;;;;;3.00;1.50;;;;;;;13.25;100.00;101248.66;5048387;28;20045;-79
2022/05/10 06:10:57;;;;;;;4.18;1.73;;;;;;;13.39;100.00;101250.81;5072441;28;20039;-80
2022/05/10 06:13:27;;;;;;;2.63;1.45;;;;;;;13.53;100.00;101240.03;5058729;28;20084;-79
2022/05/10 06:16:00;;;;;;;4.20;1.50;;;;;;;13.59;100.00;101245.19;5066208;28;20465;-78
2022/05/10 06:18:28;;;;;;;4.68;1.70;;;;;;;13.70;100.00;101239.59;5046173;28;20764;-78
2022/05/10 06:21:01;;;;;;;2.30;1.58;;;;;;;13.80;100.00;101230.53;5062543;28;20401;-79
2022/05/10 06:23:36;;;;;;;3.83;1.60;;;;;;;13.97;100.00;101224.59;5062582;28;20055;-79
2022/05/10 06:26:09;;;;;;;3.17;1.58;;;;;;;14.00;100.00;101224.81;5068004;28;20048;-79
2022/05/10 06:28:43;;;;;;;3.50;1.45;;;;;;;14.28;100.00;101227.81;5069413;28;20055;-80
2022/05/10 06:31:11;;;;;;;4.53;1.50;;;;;;;14.43;100.00;101216.69;5050876;28;20750;-79
2022/05/10 06:33:46;;;;;;;2.28;1.30;;;;;;;14.45;100.00;101219.94;5070844;28;20041;-79
2022/05/10 06:36:22;;;;;;;3.45;1.38;;;;;;;14.59;100.00;101211.00;5045230;28;20049;-79
2022/05/10 06:38:56;;;;;;;2.85;1.35;;;;;;;14.81;100.00;101217.88;5050721;28;20056;-80
2022/05/10 06:41:31;;;;;;;3.65;1.50;;;;;;;15.03;100.00;101206.34;5050408;28;20056;-79
2022/05/10 06:44:05;;;;;;;8.02;1.55;;;;;;;15.10;100.00;101209.50;5067537;28;20048;-79
2022/05/10 06:46:35;;;;;;;3.22;1.60;;;;;;;14.96;100.00;101196.53;5061375;28;20040;-79
2022/05/10 06:49:04;;;;;;;3.20;1.58;;;;;;;15.05;100.00;101198.59;5055886;28;20048;-78
2022/05/10 06:51:33;;;;;;;3.75;1.67;;;;;;;15.10;100.00;101190.31;5045965;28;20071;-78
2022/05/10 06:54:02;;;;;;;2.63;1.50;;;;;;;15.41;100.00;101190.66;5065005;28;20052;-79
2022/05/10 06:56:35;;;;;;;3.85;1.60;;;;;;;15.65;100.00;101187.75;5062221;28;20040;-79
2022/05/10 06:59:09;;;;;;;6.00;1.70;;;;;;;15.81;100.00;101182.84;5068269;28;20048;-78
2022/05/10 07:01:42;;;;;;;3.80;1.38;;;;;;;15.87;100.00;101180.81;5057925;28;20063;-79
2022/05/10 07:04:15;;;;;;;4.85;1.65;;;;;;;15.90;100.00;101174.69;5046455;28;20049;-78
2022/05/10 07:06:48;;;;;;;3.80;1.33;;;;;;;15.95;100.00;101169.13;5061529;28;20041;-79
2022/05/10 07:09:18;;;;;;;5.05;1.50;;;;;;;16.13;100.00;101174.81;5049115;28;20057;-79
2022/05/10 07:11:52;;;;;;;3.13;1.33;;;;;;;16.23;100.00;101162.81;5042734;28;20053;-79
2022/05/10 07:14:25;;;;;;;3.45;1.70;;;;;;;16.19;100.00;101165.34;5064971;28;20043;-79
2022/05/10 07:16:58;;;;;;;7.10;1.60;;;;;;;16.33;100.00;101166.13;5060350;28;20762;-79
2022/05/10 07:19:31;;;;;;;2.78;1.40;;;;;;;16.54;100.00;101160.22;5058698;28;20062;-78
2022/05/10 07:22:05;;;;;;;3.05;1.48;;;;;;;16.65;100.00;101164.38;5039684;28;20044;-79
2022/05/10 07:24:40;;;;;;;4.55;1.75;;;;;;;16.88;100.00;101164.41;5043812;28;20053;-79
2022/05/10 07:27:08;;;;;;;3.47;1.42;;;;;;;17.09;100.00;101166.69;5063184;28;20040;-79
2022/05/10 07:29:43;;;;;;;3.85;1.50;;;;;;;17.16;100.00;101169.81;5048122;28;20052;-79
2022/05/10 07:32:14;;;;;;;4.35;1.40;;;;;;;17.32;100.00;101162.00;5061932;28;20508;-79
2022/05/10 07:34:48;;;;;;;4.82;1.80;;;;;;;17.48;100.00;101173.41;5040030;28;20048;-78
2022/05/10 07:37:16;;;;;;;3.30;1.65;;;;;;;17.56;100.00;101163.59;5052652;28;20529;-78
2022/05/10 07:39:45;;;;;;;3.78;1.50;;;;;;;17.65;100.00;101164.47;5055968;28;20044;-79
2022/05/10 07:42:19;;;;;;;3.85;1.40;;;;;;;17.66;100.00;101166.06;5045789;28;20059;-78
2022/05/10 07:44:52;;;;;;;4.38;1.65;;;;;;;17.67;100.00;101153.94;5052927;28;20054;-79
2022/05/10 07:47:20;;;;;;;3.45;1.42;;;;;;;17.58;100.00;101150.31;5059210;28;20044;-79
2022/05/10 07:49:53;;;;;;;3.33;1.60;;;;;;;17.60;100.00;101151.63;5037647;28;20056;-79
2022/05/10 07:52:26;;;;;;;2.95;1.38;;;;;;;17.62;100.00;101156.81;5049026;28;21768;-78
2022/05/10 07:55:02;;;;;;;3.75;1.60;;;;;;;17.63;100.00;101148.25;5047349;28;20154;-79
2022/05/10 07:57:30;;;;;;;3.72;1.48;;;;;;;17.86;100.00;101150.94;5054115;28;20585;-78
2022/05/10 08:00:04;;;;;;;3.20;1.67;;;;;;;18.00;100.00;101148.91;5042393;28;20425;-79
2022/05/10 08:02:42;;;;;;;3.00;1.35;;;;;;;18.22;100.00;101144.44;5050675;28;20063;-79
2022/05/10 08:05:20;;;;;;;3.75;1.55;;;;;;;18.32;100.00;101138.63;5028494;28;20420;-79
2022/05/10 08:07:53;;;;;;;3.40;1.60;;;;;;;18.67;100.00;101133.16;5027646;28;20060;-79
2022/05/10 08:10:30;;;;;;;3.55;1.50;;;;;;;18.95;100.00;101135.63;5041221;28;20044;-78
2022/05/10 08:13:03;;;;;;;4.22;1.50;;;;;;;19.26;100.00;101131.84;5046410;28;20063;-78
2022/05/10 08:15:36;;;;;;;3.38;1.50;;;;;;;19.35;100.00;101132.63;5029120;28;20599;-79
2022/05/10 08:18:10;;;;;;;4.80;1.67;;;;;;;19.21;99.13;101126.50;5048442;28;20044;-79
2022/05/10 08:20:39;;;;;;;4.57;1.67;;;;;;;19.39;100.00;101132.81;5025749;28;20719;-78
2022/05/10 08:23:09;;;;;;;3.67;1.67;;;;;;;19.53;99.41;101135.34;5046615;28;20048;-78
2022/05/10 08:25:39;;;;;;;4.18;1.85;;;;;;;19.51;97.60;101140.38;5025658;28;20052;-78
2022/05/10 08:28:13;;;;;;;3.65;1.58;;;;;;;19.34;100.00;101127.44;5042773;28;20048;-79
2022/05/10 08:30:47;;;;;;;4.18;1.85;;;;;;;19.73;100.00;101130.25;5024731;28;20053;-78
2022/05/10 08:33:23;;;;;;;2.90;1.60;;;;;;;19.84;100.00;101126.00;5028818;28;20143;-78
2022/05/10 08:35:52;;;;;;;4.00;1.70;;;;;;;19.87;100.00;101114.28;5046698;28;21004;-77
2022/05/10 08:38:25;;;;;;;3.28;1.73;;;;;;;19.81;100.00;101115.63;5046718;28;20056;-77
2022/05/10 08:40:59;;;;;;;3.65;1.55;;;;;;;19.87;100.00;101122.56;5024746;28;21411;-78
2022/05/10 08:43:37;;;;;;;3.50;1.67;;;;;;;19.93;100.00;101120.41;5045933;28;20075;-78
2022/05/10 08:46:15;;;;;;;5.28;1.60;;;;;;;20.00;100.00;101123.50;5030698;28;20079;-79
2022/05/10 08:48:54;;;;;;;4.82;1.70;;;;;;;20.14;100.00;101114.97;5026683;28;20745;-78
2022/05/10 08:51:33;;;;;;;3.75;1.75;;;;;;;20.17;100.00;101108.75;5025938;28;20067;-79
2022/05/10 08:54:07;;;;;;;3.13;1.67;;;;;;;20.17;100.00;101106.00;5043052;28;20511;-79
2022/05/10 08:56:47;;;;;;;3.67;1.50;;;;;;;20.16;95.34;101107.13;5043060;28;20049;-79
2022/05/10 08:59:33;;;;;;;2.83;1.58;;;;;;;20.27;100.00;101100.06;5045690;28;20066;-78
2022/05/10 09:02:13;;;;;;;2.28;1.52;;;;;;;20.38;100.00;101100.47;5023249;28;20063;-77
2022/05/10 09:04:55;;;;;;;2.42;1.40;;;;;;;20.49;100.00;101103.66;5027348;28;20056;-79
2022/05/10 09:07:38;;;;;;;4.13;1.75;;;;;;;20.62;100.00;101102.56;5028188;28;20057;-78
2022/05/10 09:10:18;;;;;;;4.00;1.70;;;;;;;20.66;100.00;101098.00;5026597;28;20052;-78
2022/05/10 09:12:52;;;;;;;3.45;1.70;;;;;;;20.76;96.60;101096.78;5043047;28;20074;-78
2022/05/10 09:15:30;;;;;;;3.92;1.67;;;;;;;20.94;95.40;101080.84;5044148;28;20059;-78
2022/05/10 09:18:15;;;;;;;3.75;1.67;;;;;;;21.03;96.34;101087.09;5049096;28;20044;-78
2022/05/10 09:20:58;;;;;;;2.45;1.50;;;;;;;21.18;97.02;101082.06;5045859;28;20499;-77
2022/05/10 09:23:40;;;;;;;3.75;1.60;;;;;;;21.34;89.65;101073.91;5044860;28;20056;-78
2022/05/10 09:26:15;;;;;;;2.88;1.73;;;;;;;21.43;100.00;101074.59;5040087;28;20071;-78
2022/05/10 09:28:54;;;;;;;3.40;1.70;;;;;;;21.52;91.35;101061.47;5048595;28;20045;-77
2022/05/10 09:37:16;;;;;;;3.65;1.60;;;;;;;21.19;85.85;101061.53;5045821;28;20408;-77
2022/05/10 09:39:49;;;;;;;4.50;1.67;;;;;;;21.10;93.50;101064.41;5044740;28;20063;-78
2022/05/10 09:42:29;;;;;;;4.28;1.73;;;;;;;21.10;88.97;101058.03;5031198;28;20060;-77
2022/05/10 09:45:07;;;;;;;2.08;1.52;;;;;;;21.35;87.87;101056.13;5041880;28;20119;-77
2022/05/10 09:47:55;;;;;;;4.22;1.88;;;;;;;21.74;81.75;101046.38;5053209;28;20053;-78
2022/05/10 09:50:32;;;;;;;4.88;1.80;;;;;;;21.75;93.26;101049.97;5045595;28;20052;-77
2022/05/10 09:53:17;;;;;;;3.40;1.60;;;;;;;21.95;90.74;101048.19;5024960;28;20527;-77
2022/05/10 09:56:02;;;;;;;3.22;1.63;;;;;;;21.97;77.56;101032.03;5040600;28;20053;-77
2022/05/10 09:58:39;;;;;;;4.35;1.90;;;;;;;22.14;83.55;101036.50;5019960;28;20048;-77
2022/05/10 10:01:16;;;;;;;2.92;1.80;;;;;;;22.23;94.28;101031.63;5046838;28;20044;-78
2022/05/10 10:03:50;;;;;;;1.60;1.50;;;;;;;22.72;92.78;101036.19;5045198;28;20056;-77
2022/05/10 10:06:26;;;;;;;1.95;1.48;;;;;;;22.76;76.67;101020.44;5028200;28;20052;-77
2022/05/10 10:08:59;;;;;;;4.65;2.75;;;;;;;22.76;84.83;101020.44;5035062;28;20052;-78
2022/05/10 10:11:35;;;;;;;5.13;1.77;;;;;;;22.93;79.27;101015.75;5049155;28;20044;-78
2022/05/10 10:14:10;;;;;;;5.25;1.70;;;;;;;22.54;82.48;101016.28;5026103;28;20057;-78
2022/05/10 10:16:51;;;;;;;8.23;1.90;;;;;;;22.56;84.03;101013.94;5039441;28;20480;-79
2022/05/10 10:19:35;;;;;;;4.10;1.63;;;;;;;22.45;72.29;101007.31;5028802;28;20075;-78
2022/05/10 10:22:14;;;;;;;2.67;1.50;;;;;;;22.61;78.89;101009.31;5042217;28;20560;-77
2022/05/10 10:24:52;;;;;;;6.15;1.60;;;;;;;22.68;66.52;100996.44;5026238;28;20068;-78
2022/05/10 10:27:28;;;;;;;8.18;2.10;;;;;;;22.88;67.44;100999.34;5038691;28;21488;-79
2022/05/10 10:30:02;;;;;;;4.95;2.00;;;;;;;22.81;64.12;100988.84;5045904;28;20489;-78
2022/05/10 10:32:44;;;;;;;4.85;1.80;;;;;;;22.81;68.87;100988.06;5023219;28;20059;-76
2022/05/10 10:35:18;;;;;;;4.45;1.90;;;;;;;22.76;68.31;100983.59;5019116;28;20496;-78
2022/05/10 10:37:51;;;;;;;7.75;2.03;;;;;;;22.88;76.58;100979.91;5038569;28;20052;-78
2022/05/10 10:40:31;;;;;;;2.92;1.67;;;;;;;22.88;60.72;100986.28;5044285;28;20056;-75
2022/05/10 10:43:14;;;;;;;4.80;1.80;;;;;;;23.00;66.08;100970.72;5050025;28;20048;-80
2022/05/10 10:45:49;;;;;;;3.08;1.55;;;;;;;23.32;71.87;100962.41;5025566;28;20056;-78
2022/05/10 10:48:30;;;;;;;3.10;1.50;;;;;;;23.64;62.95;100959.56;5039283;28;20053;-80
2022/05/10 10:51:03;;;;;;;3.30;1.30;;;;;;;23.60;62.80;100960.28;5037989;28;20051;-77
2022/05/10 10:53:38;;;;;;;2.83;1.60;;;;;;;23.29;70.74;100966.69;5035312;28;20068;-78
2022/05/10 10:56:26;;;;;;;2.35;1.42;;;;;;;23.25;68.67;100961.03;5038947;28;20051;-78
2022/05/10 10:59:15;;;;;;;4.50;1.70;;;;;;;23.21;62.75;100953.81;5030331;28;20048;-78
2022/05/10 11:02:03;;;;;;;5.05;1.60;;;;;;;23.77;62.64;100942.38;5024789;28;20059;-77
2022/05/10 11:04:55;;;;;;;10.77;2.00;;;;;;;23.81;55.37;100938.88;5042373;28;20064;-77
2022/05/10 11:07:37;;;;;;;6.82;1.88;;;;;;;23.88;53.96;100939.09;5043381;28;20044;-78
2022/05/10 11:10:23;;;;;;;2.67;1.42;;;;;;;24.02;55.69;100930.22;5041658;28;20052;-78
2022/05/10 11:13:00;;;;;;;3.15;1.55;;;;;;;23.87;59.17;100923.53;5021572;28;20056;-78
2022/05/10 11:15:43;;;;;;;2.85;1.50;;;;;;;23.76;56.84;100926.88;5054324;28;20106;-78
2022/05/10 11:18:30;;;;;;;2.85;1.60;;;;;;;24.23;53.99;100924.28;5023951;28;20497;-78
2022/05/10 11:21:20;;;;;;;9.18;2.00;;;;;;;24.15;50.65;100922.53;5037422;28;20063;-79
2022/05/10 11:24:01;;;;;;;6.45;1.60;;;;;;;24.44;56.26;100915.53;5041986;28;20048;-78
2022/05/10 11:26:53;;;;;;;19.70;2.28;;;;;;;23.44;52.60;100928.97;5046331;28;20052;-78
2022/05/10 11:29:37;;;;;;;5.95;1.90;;;;;;;23.15;55.75;100913.63;5045295;28;20517;-78
2022/05/10 11:32:27;;;;;;;4.15;1.55;;;;;;;23.05;55.19;100909.38;5046931;28;20047;-78
2022/05/10 11:35:20;;;;;;;3.28;1.70;;;;;;;23.03;53.89;100917.25;5034030;28;20052;-78
2022/05/10 11:38:01;;;;;;;2.78;1.50;;;;;;;23.45;54.05;100922.25;5026485;28;20056;-78
2022/05/10 11:40:56;;;;;;;4.07;1.48;;;;;;;23.40;55.94;100916.97;5030459;28;20079;-78
2022/05/10 11:43:50;;;;;;;3.60;1.70;;;;;;;23.55;55.27;100915.31;5042970;28;20051;-78
2022/05/10 11:47:01;;;;;;;3.92;1.38;;;;;;;23.68;59.16;100915.97;5025701;28;20064;-78
2022/05/10 11:49:56;;;;;;;3.30;1.70;;;;;;;23.60;51.74;100912.22;5043882;28;20048;-77
2022/05/10 11:52:59;;;;;;;4.90;1.70;;;;;;;23.22;54.52;100894.34;5045699;28;20801;-78
2022/05/10 11:55:37;;;;;;;3.88;1.40;;;;;;;23.35;58.43;100892.25;5044024;28;20056;-78
2022/05/10 11:58:10;;;;;;;6.43;1.50;;;;;;;23.65;56.72;100898.06;5030057;28;20686;-77
2022/05/10 12:00:51;;;;;;;2.33;1.25;;;;;;;23.92;54.85;100881.59;5028189;28;21360;-78
2022/05/10 12:03:49;;;;;;;6.72;1.40;;;;;;;23.92;48.71;100884.38;5027651;28;20052;-76
2022/05/10 12:06:49;;;;;;;2.22;1.40;;;;;;;23.99;63.21;100870.59;5027644;28;20052;-77
2022/05/10 12:09:53;;;;;;;2.85;1.60;;;;;;;23.73;51.33;100871.25;5049989;28;20052;-79